sensor_id;sensor_type;location;lat;lon;timestamp;P1;durP1;ratioP1;P2;durP2;ratioP2
56830;SDS011;42713;42.676;23.352;2024-01-30T00:01:38;7.35;;;3.10;;
56830;SDS011;42713;42.676;23.352;2024-01-30T00:04:04;9.55;;;3.67;;
56830;SDS011;42713;42.676;23.352;2024-01-30T00:06:29;8.00;;;3.63;;
56830;SDS011;42713;42.676;23.352;2024-01-30T00:08:55;11.63;;;4.30;;
56830;SDS011;42713;42.676;23.352;2024-01-30T00:11:20;9.25;;;3.85;;
56830;SDS011;42713;42.676;23.352;2024-01-30T00:13:46;8.20;;;3.63;;
56830;SDS011;42713;42.676;23.352;2024-01-30T00:16:24;9.65;;;3.65;;
56830;SDS011;42713;42.676;23.352;2024-01-30T00:18:50;9.52;;;3.80;;
56830;SDS011;42713;42.676;23.352;2024-01-30T00:21:17;10.80;;;3.75;;
56830;SDS011;42713;42.676;23.352;2024-01-30T00:23:43;9.65;;;4.35;;
56830;SDS011;42713;42.676;23.352;2024-01-30T00:26:08;9.63;;;3.65;;
56830;SDS011;42713;42.676;23.352;2024-01-30T00:28:34;10.07;;;4.20;;
56830;SDS011;42713;42.676;23.352;2024-01-30T00:30:59;9.93;;;4.30;;
56830;SDS011;42713;42.676;23.352;2024-01-30T00:33:26;9.75;;;4.18;;
56830;SDS011;42713;42.676;23.352;2024-01-30T00:35:52;10.40;;;4.40;;
56830;SDS011;42713;42.676;23.352;2024-01-30T00:38:17;15.05;;;4.07;;
56830;SDS011;42713;42.676;23.352;2024-01-30T00:40:43;10.63;;;3.92;;
56830;SDS011;42713;42.676;23.352;2024-01-30T00:43:08;9.30;;;4.10;;
56830;SDS011;42713;42.676;23.352;2024-01-30T00:45:34;8.77;;;3.70;;
56830;SDS011;42713;42.676;23.352;2024-01-30T00:47:59;11.38;;;4.50;;
56830;SDS011;42713;42.676;23.352;2024-01-30T00:50:25;9.45;;;3.80;;
56830;SDS011;42713;42.676;23.352;2024-01-30T00:52:50;9.32;;;3.90;;
56830;SDS011;42713;42.676;23.352;2024-01-30T00:55:15;9.88;;;3.80;;
56830;SDS011;42713;42.676;23.352;2024-01-30T00:57:41;9.15;;;3.65;;
56830;SDS011;42713;42.676;23.352;2024-01-30T01:00:07;10.13;;;4.32;;
56830;SDS011;42713;42.676;23.352;2024-01-30T01:02:37;9.60;;;4.03;;
56830;SDS011;42713;42.676;23.352;2024-01-30T01:05:04;8.88;;;3.80;;
56830;SDS011;42713;42.676;23.352;2024-01-30T01:07:30;9.93;;;3.90;;
56830;SDS011;42713;42.676;23.352;2024-01-30T01:09:55;9.80;;;4.22;;
56830;SDS011;42713;42.676;23.352;2024-01-30T01:12:21;10.57;;;4.13;;
56830;SDS011;42713;42.676;23.352;2024-01-30T01:14:46;9.15;;;3.60;;
56830;SDS011;42713;42.676;23.352;2024-01-30T01:17:12;12.52;;;4.07;;
56830;SDS011;42713;42.676;23.352;2024-01-30T01:19:37;9.52;;;3.90;;
56830;SDS011;42713;42.676;23.352;2024-01-30T01:22:03;10.98;;;4.13;;
56830;SDS011;42713;42.676;23.352;2024-01-30T01:24:31;10.73;;;4.00;;
56830;SDS011;42713;42.676;23.352;2024-01-30T01:26:58;10.07;;;4.53;;
56830;SDS011;42713;42.676;23.352;2024-01-30T01:29:23;9.98;;;3.97;;
56830;SDS011;42713;42.676;23.352;2024-01-30T01:31:54;10.43;;;3.95;;
56830;SDS011;42713;42.676;23.352;2024-01-30T01:34:23;9.80;;;3.78;;
56830;SDS011;42713;42.676;23.352;2024-01-30T01:36:49;11.48;;;4.38;;
56830;SDS011;42713;42.676;23.352;2024-01-30T01:39:15;9.35;;;4.20;;
56830;SDS011;42713;42.676;23.352;2024-01-30T01:41:41;10.27;;;3.63;;
56830;SDS011;42713;42.676;23.352;2024-01-30T01:44:07;9.65;;;3.88;;
56830;SDS011;42713;42.676;23.352;2024-01-30T01:46:33;11.07;;;4.10;;
56830;SDS011;42713;42.676;23.352;2024-01-30T01:49:00;10.18;;;3.78;;
56830;SDS011;42713;42.676;23.352;2024-01-30T01:51:27;10.48;;;4.10;;
56830;SDS011;42713;42.676;23.352;2024-01-30T01:53:55;10.63;;;4.07;;
56830;SDS011;42713;42.676;23.352;2024-01-30T01:56:21;10.18;;;3.90;;
56830;SDS011;42713;42.676;23.352;2024-01-30T01:58:48;11.52;;;4.10;;
56830;SDS011;42713;42.676;23.352;2024-01-30T02:01:18;13.50;;;4.97;;
56830;SDS011;42713;42.676;23.352;2024-01-30T02:03:45;10.05;;;3.65;;
56830;SDS011;42713;42.676;23.352;2024-01-30T02:06:12;9.30;;;3.80;;
56830;SDS011;42713;42.676;23.352;2024-01-30T02:08:38;9.45;;;4.03;;
56830;SDS011;42713;42.676;23.352;2024-01-30T02:11:04;9.18;;;3.40;;
56830;SDS011;42713;42.676;23.352;2024-01-30T02:13:30;9.10;;;3.65;;
56830;SDS011;42713;42.676;23.352;2024-01-30T02:15:55;11.20;;;3.78;;
56830;SDS011;42713;42.676;23.352;2024-01-30T02:18:21;10.65;;;4.38;;
56830;SDS011;42713;42.676;23.352;2024-01-30T02:20:50;10.88;;;3.70;;
56830;SDS011;42713;42.676;23.352;2024-01-30T02:23:18;10.27;;;4.00;;
56830;SDS011;42713;42.676;23.352;2024-01-30T02:25:45;8.38;;;3.72;;
56830;SDS011;42713;42.676;23.352;2024-01-30T02:28:11;9.70;;;3.88;;
56830;SDS011;42713;42.676;23.352;2024-01-30T02:30:39;9.82;;;3.53;;
56830;SDS011;42713;42.676;23.352;2024-01-30T02:33:05;8.57;;;3.75;;
56830;SDS011;42713;42.676;23.352;2024-01-30T02:35:31;9.43;;;3.88;;
56830;SDS011;42713;42.676;23.352;2024-01-30T02:37:57;9.25;;;3.92;;
56830;SDS011;42713;42.676;23.352;2024-01-30T02:40:22;9.77;;;3.92;;
56830;SDS011;42713;42.676;23.352;2024-01-30T02:42:48;11.07;;;3.55;;
56830;SDS011;42713;42.676;23.352;2024-01-30T02:45:13;9.93;;;3.92;;
56830;SDS011;42713;42.676;23.352;2024-01-30T02:47:39;8.45;;;3.67;;
56830;SDS011;42713;42.676;23.352;2024-01-30T02:50:05;9.90;;;3.67;;
56830;SDS011;42713;42.676;23.352;2024-01-30T02:52:31;10.48;;;4.47;;
56830;SDS011;42713;42.676;23.352;2024-01-30T02:54:57;9.57;;;4.03;;
56830;SDS011;42713;42.676;23.352;2024-01-30T02:57:22;8.68;;;3.60;;
56830;SDS011;42713;42.676;23.352;2024-01-30T02:59:58;9.75;;;3.80;;
56830;SDS011;42713;42.676;23.352;2024-01-30T03:02:23;9.15;;;3.45;;
56830;SDS011;42713;42.676;23.352;2024-01-30T03:04:49;9.35;;;3.50;;
56830;SDS011;42713;42.676;23.352;2024-01-30T03:07:15;8.73;;;4.07;;
56830;SDS011;42713;42.676;23.352;2024-01-30T03:09:43;8.90;;;3.53;;
56830;SDS011;42713;42.676;23.352;2024-01-30T03:12:09;8.43;;;3.80;;
56830;SDS011;42713;42.676;23.352;2024-01-30T03:14:34;8.70;;;4.10;;
56830;SDS011;42713;42.676;23.352;2024-01-30T03:17:00;8.38;;;3.28;;
56830;SDS011;42713;42.676;23.352;2024-01-30T03:19:25;13.65;;;3.95;;
56830;SDS011;42713;42.676;23.352;2024-01-30T03:21:51;10.13;;;3.78;;
56830;SDS011;42713;42.676;23.352;2024-01-30T03:24:16;9.95;;;3.78;;
56830;SDS011;42713;42.676;23.352;2024-01-30T03:26:42;9.43;;;3.92;;
56830;SDS011;42713;42.676;23.352;2024-01-30T03:29:08;7.88;;;3.33;;
56830;SDS011;42713;42.676;23.352;2024-01-30T03:31:33;9.55;;;3.60;;
56830;SDS011;42713;42.676;23.352;2024-01-30T03:33:59;9.40;;;3.85;;
56830;SDS011;42713;42.676;23.352;2024-01-30T03:36:24;11.20;;;4.07;;
56830;SDS011;42713;42.676;23.352;2024-01-30T03:38:50;7.57;;;3.20;;
56830;SDS011;42713;42.676;23.352;2024-01-30T03:41:15;8.35;;;3.28;;
56830;SDS011;42713;42.676;23.352;2024-01-30T03:43:41;7.32;;;3.20;;
56830;SDS011;42713;42.676;23.352;2024-01-30T03:46:06;8.20;;;2.97;;
56830;SDS011;42713;42.676;23.352;2024-01-30T03:48:32;7.85;;;3.05;;
56830;SDS011;42713;42.676;23.352;2024-01-30T03:50:57;8.88;;;3.58;;
56830;SDS011;42713;42.676;23.352;2024-01-30T03:53:23;7.90;;;3.10;;
56830;SDS011;42713;42.676;23.352;2024-01-30T03:55:49;8.65;;;3.20;;
56830;SDS011;42713;42.676;23.352;2024-01-30T03:58:14;9.32;;;3.20;;
56830;SDS011;42713;42.676;23.352;2024-01-30T04:00:40;8.77;;;3.42;;
56830;SDS011;42713;42.676;23.352;2024-01-30T04:03:06;10.43;;;3.50;;
56830;SDS011;42713;42.676;23.352;2024-01-30T04:05:32;7.25;;;2.72;;
56830;SDS011;42713;42.676;23.352;2024-01-30T04:07:57;8.13;;;3.00;;
56830;SDS011;42713;42.676;23.352;2024-01-30T04:10:23;9.15;;;3.30;;
56830;SDS011;42713;42.676;23.352;2024-01-30T04:12:52;9.77;;;3.00;;
56830;SDS011;42713;42.676;23.352;2024-01-30T04:15:20;6.90;;;2.53;;
56830;SDS011;42713;42.676;23.352;2024-01-30T04:17:45;8.80;;;2.97;;
56830;SDS011;42713;42.676;23.352;2024-01-30T04:20:14;6.85;;;2.90;;
56830;SDS011;42713;42.676;23.352;2024-01-30T04:22:44;10.23;;;3.67;;
56830;SDS011;42713;42.676;23.352;2024-01-30T04:25:11;6.93;;;2.60;;
56830;SDS011;42713;42.676;23.352;2024-01-30T04:27:37;9.18;;;3.03;;
56830;SDS011;42713;42.676;23.352;2024-01-30T04:30:02;7.25;;;2.80;;
56830;SDS011;42713;42.676;23.352;2024-01-30T04:32:29;8.30;;;2.90;;
56830;SDS011;42713;42.676;23.352;2024-01-30T04:34:54;11.60;;;3.05;;
56830;SDS011;42713;42.676;23.352;2024-01-30T04:37:20;7.60;;;2.88;;
56830;SDS011;42713;42.676;23.352;2024-01-30T04:39:45;8.38;;;2.90;;
56830;SDS011;42713;42.676;23.352;2024-01-30T04:42:11;7.93;;;2.58;;
56830;SDS011;42713;42.676;23.352;2024-01-30T04:44:36;8.18;;;3.13;;
56830;SDS011;42713;42.676;23.352;2024-01-30T04:47:01;11.95;;;3.42;;
56830;SDS011;42713;42.676;23.352;2024-01-30T04:49:27;7.43;;;2.63;;
56830;SDS011;42713;42.676;23.352;2024-01-30T04:51:54;10.50;;;2.90;;
56830;SDS011;42713;42.676;23.352;2024-01-30T04:54:19;9.40;;;3.53;;
56830;SDS011;42713;42.676;23.352;2024-01-30T04:56:45;8.85;;;3.78;;
56830;SDS011;42713;42.676;23.352;2024-01-30T04:59:11;10.35;;;3.40;;
56830;SDS011;42713;42.676;23.352;2024-01-30T05:01:37;6.93;;;2.85;;
56830;SDS011;42713;42.676;23.352;2024-01-30T05:04:02;6.43;;;2.47;;
56830;SDS011;42713;42.676;23.352;2024-01-30T05:06:28;7.30;;;2.67;;
56830;SDS011;42713;42.676;23.352;2024-01-30T05:08:54;10.00;;;3.15;;
56830;SDS011;42713;42.676;23.352;2024-01-30T05:11:20;8.98;;;2.67;;
56830;SDS011;42713;42.676;23.352;2024-01-30T05:13:46;7.32;;;2.75;;
56830;SDS011;42713;42.676;23.352;2024-01-30T05:16:11;8.00;;;2.95;;
56830;SDS011;42713;42.676;23.352;2024-01-30T05:18:37;9.38;;;3.33;;
56830;SDS011;42713;42.676;23.352;2024-01-30T05:21:03;8.20;;;3.17;;
56830;SDS011;42713;42.676;23.352;2024-01-30T05:23:29;8.60;;;3.38;;
56830;SDS011;42713;42.676;23.352;2024-01-30T05:25:54;11.55;;;3.75;;
56830;SDS011;42713;42.676;23.352;2024-01-30T05:28:20;9.40;;;3.63;;
56830;SDS011;42713;42.676;23.352;2024-01-30T05:30:45;10.68;;;3.90;;
56830;SDS011;42713;42.676;23.352;2024-01-30T05:33:11;8.55;;;3.33;;
56830;SDS011;42713;42.676;23.352;2024-01-30T05:35:38;11.15;;;4.05;;
56830;SDS011;42713;42.676;23.352;2024-01-30T05:38:03;16.98;;;4.10;;
56830;SDS011;42713;42.676;23.352;2024-01-30T05:40:29;10.73;;;3.38;;
56830;SDS011;42713;42.676;23.352;2024-01-30T05:42:58;11.23;;;4.00;;
56830;SDS011;42713;42.676;23.352;2024-01-30T05:45:26;9.35;;;3.97;;
56830;SDS011;42713;42.676;23.352;2024-01-30T05:47:52;9.77;;;3.30;;
56830;SDS011;42713;42.676;23.352;2024-01-30T05:50:17;11.80;;;3.88;;
56830;SDS011;42713;42.676;23.352;2024-01-30T05:52:43;11.50;;;3.72;;
56830;SDS011;42713;42.676;23.352;2024-01-30T05:55:09;9.80;;;4.20;;
56830;SDS011;42713;42.676;23.352;2024-01-30T05:57:35;12.57;;;3.75;;
56830;SDS011;42713;42.676;23.352;2024-01-30T06:00:00;11.55;;;4.00;;
56830;SDS011;42713;42.676;23.352;2024-01-30T06:02:26;12.07;;;4.20;;
56830;SDS011;42713;42.676;23.352;2024-01-30T06:04:52;14.95;;;4.10;;
56830;SDS011;42713;42.676;23.352;2024-01-30T06:07:17;14.00;;;5.10;;
56830;SDS011;42713;42.676;23.352;2024-01-30T06:09:43;16.67;;;4.57;;
56830;SDS011;42713;42.676;23.352;2024-01-30T06:12:10;12.23;;;4.72;;
56830;SDS011;42713;42.676;23.352;2024-01-30T06:14:37;14.18;;;4.38;;
56830;SDS011;42713;42.676;23.352;2024-01-30T06:17:03;15.40;;;4.80;;
56830;SDS011;42713;42.676;23.352;2024-01-30T06:19:30;13.82;;;4.57;;
56830;SDS011;42713;42.676;23.352;2024-01-30T06:21:57;14.77;;;4.88;;
56830;SDS011;42713;42.676;23.352;2024-01-30T06:24:41;14.77;;;3.80;;
56830;SDS011;42713;42.676;23.352;2024-01-30T06:27:10;9.82;;;3.90;;
56830;SDS011;42713;42.676;23.352;2024-01-30T06:29:39;13.05;;;4.38;;
56830;SDS011;42713;42.676;23.352;2024-01-30T06:32:05;16.90;;;5.07;;
56830;SDS011;42713;42.676;23.352;2024-01-30T06:34:31;19.60;;;5.07;;
56830;SDS011;42713;42.676;23.352;2024-01-30T06:36:57;12.75;;;4.47;;
56830;SDS011;42713;42.676;23.352;2024-01-30T06:39:23;9.80;;;4.28;;
56830;SDS011;42713;42.676;23.352;2024-01-30T06:41:50;14.02;;;4.22;;
56830;SDS011;42713;42.676;23.352;2024-01-30T06:44:15;18.75;;;5.40;;
56830;SDS011;42713;42.676;23.352;2024-01-30T06:46:44;12.57;;;5.03;;
56830;SDS011;42713;42.676;23.352;2024-01-30T06:49:28;14.55;;;6.53;;
56830;SDS011;42713;42.676;23.352;2024-01-30T06:51:54;13.63;;;4.80;;
56830;SDS011;42713;42.676;23.352;2024-01-30T06:54:19;16.45;;;5.00;;
56830;SDS011;42713;42.676;23.352;2024-01-30T06:56:45;15.93;;;4.68;;
56830;SDS011;42713;42.676;23.352;2024-01-30T06:59:10;13.25;;;4.70;;
56830;SDS011;42713;42.676;23.352;2024-01-30T07:01:36;10.73;;;4.22;;
56830;SDS011;42713;42.676;23.352;2024-01-30T07:04:02;13.88;;;4.78;;
56830;SDS011;42713;42.676;23.352;2024-01-30T07:06:27;17.98;;;5.00;;
56830;SDS011;42713;42.676;23.352;2024-01-30T07:08:53;23.13;;;5.32;;
56830;SDS011;42713;42.676;23.352;2024-01-30T07:11:19;11.63;;;3.90;;
56830;SDS011;42713;42.676;23.352;2024-01-30T07:13:47;12.23;;;3.92;;
56830;SDS011;42713;42.676;23.352;2024-01-30T07:16:14;13.18;;;4.55;;
56830;SDS011;42713;42.676;23.352;2024-01-30T07:18:43;13.25;;;4.00;;
56830;SDS011;42713;42.676;23.352;2024-01-30T07:21:08;14.63;;;3.95;;
56830;SDS011;42713;42.676;23.352;2024-01-30T07:23:34;8.70;;;3.50;;
56830;SDS011;42713;42.676;23.352;2024-01-30T07:26:01;9.60;;;3.35;;
56830;SDS011;42713;42.676;23.352;2024-01-30T07:28:26;9.95;;;3.35;;
56830;SDS011;42713;42.676;23.352;2024-01-30T07:30:52;10.52;;;3.45;;
56830;SDS011;42713;42.676;23.352;2024-01-30T07:33:17;8.18;;;3.17;;
56830;SDS011;42713;42.676;23.352;2024-01-30T07:35:43;7.90;;;2.50;;
56830;SDS011;42713;42.676;23.352;2024-01-30T07:38:10;7.95;;;3.10;;
56830;SDS011;42713;42.676;23.352;2024-01-30T07:40:35;17.30;;;4.00;;
56830;SDS011;42713;42.676;23.352;2024-01-30T07:43:01;7.53;;;2.75;;
56830;SDS011;42713;42.676;23.352;2024-01-30T07:45:29;7.80;;;2.90;;
56830;SDS011;42713;42.676;23.352;2024-01-30T07:47:58;9.30;;;2.65;;
56830;SDS011;42713;42.676;23.352;2024-01-30T07:50:27;8.63;;;2.60;;
56830;SDS011;42713;42.676;23.352;2024-01-30T07:52:53;9.75;;;3.28;;
56830;SDS011;42713;42.676;23.352;2024-01-30T07:55:20;9.82;;;3.03;;
56830;SDS011;42713;42.676;23.352;2024-01-30T07:57:51;7.95;;;2.78;;
56830;SDS011;42713;42.676;23.352;2024-01-30T08:00:18;11.57;;;2.83;;
56830;SDS011;42713;42.676;23.352;2024-01-30T08:02:45;8.52;;;2.67;;
56830;SDS011;42713;42.676;23.352;2024-01-30T08:05:11;13.52;;;3.17;;
56830;SDS011;42713;42.676;23.352;2024-01-30T08:07:36;8.68;;;2.83;;
56830;SDS011;42713;42.676;23.352;2024-01-30T08:10:02;12.88;;;3.35;;
56830;SDS011;42713;42.676;23.352;2024-01-30T08:12:28;14.60;;;5.72;;
56830;SDS011;42713;42.676;23.352;2024-01-30T08:14:54;10.93;;;3.88;;
56830;SDS011;42713;42.676;23.352;2024-01-30T08:17:20;12.10;;;3.22;;
56830;SDS011;42713;42.676;23.352;2024-01-30T08:19:49;8.77;;;3.25;;
56830;SDS011;42713;42.676;23.352;2024-01-30T08:22:14;8.80;;;3.42;;
56830;SDS011;42713;42.676;23.352;2024-01-30T08:24:52;12.02;;;3.08;;
56830;SDS011;42713;42.676;23.352;2024-01-30T08:27:17;10.38;;;3.88;;
56830;SDS011;42713;42.676;23.352;2024-01-30T08:29:52;18.23;;;4.40;;
56830;SDS011;42713;42.676;23.352;2024-01-30T08:32:19;9.38;;;2.78;;
56830;SDS011;42713;42.676;23.352;2024-01-30T08:34:45;10.35;;;2.80;;
56830;SDS011;42713;42.676;23.352;2024-01-30T08:37:10;8.60;;;2.75;;
56830;SDS011;42713;42.676;23.352;2024-01-30T08:39:37;7.35;;;2.85;;
56830;SDS011;42713;42.676;23.352;2024-01-30T08:42:03;7.57;;;3.15;;
56830;SDS011;42713;42.676;23.352;2024-01-30T08:44:30;10.75;;;3.05;;
56830;SDS011;42713;42.676;23.352;2024-01-30T08:46:55;8.00;;;3.17;;
56830;SDS011;42713;42.676;23.352;2024-01-30T08:49:21;8.52;;;3.17;;
56830;SDS011;42713;42.676;23.352;2024-01-30T08:51:46;9.45;;;2.97;;
56830;SDS011;42713;42.676;23.352;2024-01-30T08:54:15;8.38;;;3.38;;
56830;SDS011;42713;42.676;23.352;2024-01-30T08:56:41;9.10;;;3.80;;
56830;SDS011;42713;42.676;23.352;2024-01-30T08:59:06;8.82;;;3.17;;
56830;SDS011;42713;42.676;23.352;2024-01-30T09:01:32;11.65;;;3.88;;
56830;SDS011;42713;42.676;23.352;2024-01-30T09:03:58;12.40;;;3.28;;
56830;SDS011;42713;42.676;23.352;2024-01-30T09:06:23;9.35;;;3.25;;
56830;SDS011;42713;42.676;23.352;2024-01-30T09:08:53;8.90;;;3.30;;
56830;SDS011;42713;42.676;23.352;2024-01-30T09:11:19;11.50;;;3.58;;
56830;SDS011;42713;42.676;23.352;2024-01-30T09:13:44;8.98;;;3.40;;
56830;SDS011;42713;42.676;23.352;2024-01-30T09:16:10;10.57;;;3.88;;
56830;SDS011;42713;42.676;23.352;2024-01-30T09:18:35;8.13;;;3.20;;
56830;SDS011;42713;42.676;23.352;2024-01-30T09:21:01;8.50;;;3.22;;
56830;SDS011;42713;42.676;23.352;2024-01-30T09:23:27;7.40;;;2.97;;
56830;SDS011;42713;42.676;23.352;2024-01-30T09:25:53;8.15;;;3.03;;
56830;SDS011;42713;42.676;23.352;2024-01-30T09:28:18;10.00;;;3.67;;
56830;SDS011;42713;42.676;23.352;2024-01-30T09:30:44;9.00;;;3.60;;
56830;SDS011;42713;42.676;23.352;2024-01-30T09:33:10;7.90;;;3.25;;
56830;SDS011;42713;42.676;23.352;2024-01-30T09:35:36;7.93;;;3.13;;
56830;SDS011;42713;42.676;23.352;2024-01-30T09:38:02;8.68;;;3.05;;
56830;SDS011;42713;42.676;23.352;2024-01-30T09:40:30;8.23;;;2.80;;
56830;SDS011;42713;42.676;23.352;2024-01-30T09:42:56;8.07;;;2.83;;
56830;SDS011;42713;42.676;23.352;2024-01-30T09:45:25;6.18;;;2.60;;
56830;SDS011;42713;42.676;23.352;2024-01-30T09:47:51;10.35;;;2.88;;
56830;SDS011;42713;42.676;23.352;2024-01-30T09:50:17;8.43;;;2.85;;
56830;SDS011;42713;42.676;23.352;2024-01-30T09:52:44;7.43;;;3.10;;
56830;SDS011;42713;42.676;23.352;2024-01-30T09:55:10;9.93;;;3.53;;
56830;SDS011;42713;42.676;23.352;2024-01-30T09:57:54;8.48;;;3.25;;
56830;SDS011;42713;42.676;23.352;2024-01-30T10:00:20;8.45;;;3.25;;
56830;SDS011;42713;42.676;23.352;2024-01-30T10:02:51;9.00;;;3.20;;
56830;SDS011;42713;42.676;23.352;2024-01-30T10:05:18;8.63;;;3.10;;
56830;SDS011;42713;42.676;23.352;2024-01-30T10:07:54;7.65;;;2.90;;
56830;SDS011;42713;42.676;23.352;2024-01-30T10:10:21;9.77;;;3.10;;
56830;SDS011;42713;42.676;23.352;2024-01-30T10:12:50;8.35;;;2.88;;
56830;SDS011;42713;42.676;23.352;2024-01-30T10:15:17;9.07;;;2.85;;
56830;SDS011;42713;42.676;23.352;2024-01-30T10:17:44;7.70;;;2.60;;
56830;SDS011;42713;42.676;23.352;2024-01-30T10:20:11;8.40;;;2.60;;
56830;SDS011;42713;42.676;23.352;2024-01-30T10:22:37;6.75;;;2.80;;
56830;SDS011;42713;42.676;23.352;2024-01-30T10:25:03;7.43;;;2.70;;
56830;SDS011;42713;42.676;23.352;2024-01-30T10:27:30;6.25;;;2.25;;
56830;SDS011;42713;42.676;23.352;2024-01-30T10:29:56;10.43;;;3.00;;
56830;SDS011;42713;42.676;23.352;2024-01-30T10:32:21;9.02;;;3.20;;
56830;SDS011;42713;42.676;23.352;2024-01-30T10:34:47;8.48;;;3.05;;
56830;SDS011;42713;42.676;23.352;2024-01-30T10:37:12;7.43;;;2.88;;
56830;SDS011;42713;42.676;23.352;2024-01-30T10:39:41;7.30;;;2.63;;
56830;SDS011;42713;42.676;23.352;2024-01-30T10:42:16;11.52;;;2.67;;
56830;SDS011;42713;42.676;23.352;2024-01-30T10:47:18;7.40;;;2.75;;
56830;SDS011;42713;42.676;23.352;2024-01-30T10:49:50;8.57;;;2.60;;
56830;SDS011;42713;42.676;23.352;2024-01-30T10:52:17;7.45;;;2.70;;
56830;SDS011;42713;42.676;23.352;2024-01-30T10:54:44;6.95;;;2.60;;
56830;SDS011;42713;42.676;23.352;2024-01-30T10:57:10;5.88;;;2.33;;
56830;SDS011;42713;42.676;23.352;2024-01-30T10:59:40;8.30;;;2.53;;
56830;SDS011;42713;42.676;23.352;2024-01-30T11:02:07;6.90;;;2.40;;
56830;SDS011;42713;42.676;23.352;2024-01-30T11:04:37;7.95;;;2.30;;
56830;SDS011;42713;42.676;23.352;2024-01-30T11:07:16;12.05;;;2.97;;
56830;SDS011;42713;42.676;23.352;2024-01-30T11:09:48;7.10;;;2.75;;
56830;SDS011;42713;42.676;23.352;2024-01-30T11:12:14;7.95;;;2.42;;
56830;SDS011;42713;42.676;23.352;2024-01-30T11:14:40;9.93;;;2.35;;
56830;SDS011;42713;42.676;23.352;2024-01-30T11:17:07;8.73;;;2.20;;
56830;SDS011;42713;42.676;23.352;2024-01-30T11:19:35;9.18;;;2.60;;
56830;SDS011;42713;42.676;23.352;2024-01-30T11:22:00;6.38;;;2.28;;
56830;SDS011;42713;42.676;23.352;2024-01-30T11:24:26;7.75;;;2.80;;
56830;SDS011;42713;42.676;23.352;2024-01-30T11:26:56;7.60;;;3.10;;
56830;SDS011;42713;42.676;23.352;2024-01-30T11:29:27;7.57;;;3.22;;
56830;SDS011;42713;42.676;23.352;2024-01-30T11:31:57;7.75;;;2.80;;
56830;SDS011;42713;42.676;23.352;2024-01-30T11:34:23;8.55;;;3.28;;
56830;SDS011;42713;42.676;23.352;2024-01-30T11:36:54;8.18;;;2.90;;
56830;SDS011;42713;42.676;23.352;2024-01-30T11:39:27;9.13;;;2.83;;
56830;SDS011;42713;42.676;23.352;2024-01-30T11:41:54;7.32;;;2.70;;
56830;SDS011;42713;42.676;23.352;2024-01-30T11:44:20;8.07;;;2.75;;
56830;SDS011;42713;42.676;23.352;2024-01-30T11:46:48;7.60;;;2.33;;
56830;SDS011;42713;42.676;23.352;2024-01-30T11:49:14;7.00;;;2.80;;
56830;SDS011;42713;42.676;23.352;2024-01-30T11:51:40;6.10;;;2.40;;
56830;SDS011;42713;42.676;23.352;2024-01-30T11:54:05;6.97;;;2.60;;
56830;SDS011;42713;42.676;23.352;2024-01-30T11:56:32;7.10;;;2.78;;
56830;SDS011;42713;42.676;23.352;2024-01-30T11:58:58;8.50;;;2.90;;
56830;SDS011;42713;42.676;23.352;2024-01-30T12:01:25;6.65;;;2.58;;
56830;SDS011;42713;42.676;23.352;2024-01-30T12:03:51;8.00;;;2.97;;
56830;SDS011;42713;42.676;23.352;2024-01-30T12:06:17;7.32;;;2.55;;
56830;SDS011;42713;42.676;23.352;2024-01-30T12:08:43;11.02;;;3.20;;
56830;SDS011;42713;42.676;23.352;2024-01-30T12:11:18;8.30;;;2.40;;
56830;SDS011;42713;42.676;23.352;2024-01-30T12:13:44;8.80;;;2.88;;
56830;SDS011;42713;42.676;23.352;2024-01-30T12:16:10;7.05;;;2.60;;
56830;SDS011;42713;42.676;23.352;2024-01-30T12:18:35;6.65;;;2.80;;
56830;SDS011;42713;42.676;23.352;2024-01-30T12:21:01;8.85;;;2.60;;
56830;SDS011;42713;42.676;23.352;2024-01-30T12:23:27;7.85;;;3.00;;
56830;SDS011;42713;42.676;23.352;2024-01-30T12:25:53;6.80;;;2.70;;
56830;SDS011;42713;42.676;23.352;2024-01-30T12:28:19;6.50;;;2.40;;
56830;SDS011;42713;42.676;23.352;2024-01-30T12:30:46;7.63;;;2.88;;
56830;SDS011;42713;42.676;23.352;2024-01-30T12:33:18;6.72;;;2.95;;
56830;SDS011;42713;42.676;23.352;2024-01-30T12:35:47;7.38;;;2.88;;
56830;SDS011;42713;42.676;23.352;2024-01-30T12:38:13;9.07;;;3.03;;
56830;SDS011;42713;42.676;23.352;2024-01-30T12:40:39;7.03;;;2.75;;
56830;SDS011;42713;42.676;23.352;2024-01-30T12:43:05;7.63;;;3.03;;
56830;SDS011;42713;42.676;23.352;2024-01-30T12:45:30;8.02;;;3.28;;
56830;SDS011;42713;42.676;23.352;2024-01-30T12:47:58;9.10;;;3.28;;
56830;SDS011;42713;42.676;23.352;2024-01-30T12:50:24;8.85;;;3.00;;
56830;SDS011;42713;42.676;23.352;2024-01-30T12:52:49;8.52;;;3.25;;
56830;SDS011;42713;42.676;23.352;2024-01-30T12:55:15;7.45;;;3.17;;
56830;SDS011;42713;42.676;23.352;2024-01-30T12:57:40;8.30;;;3.13;;
56830;SDS011;42713;42.676;23.352;2024-01-30T13:00:07;7.68;;;3.17;;
56830;SDS011;42713;42.676;23.352;2024-01-30T13:02:35;11.32;;;2.78;;
56830;SDS011;42713;42.676;23.352;2024-01-30T13:05:02;8.88;;;2.95;;
56830;SDS011;42713;42.676;23.352;2024-01-30T13:07:29;8.30;;;2.90;;
56830;SDS011;42713;42.676;23.352;2024-01-30T13:09:54;8.35;;;2.97;;
56830;SDS011;42713;42.676;23.352;2024-01-30T13:12:20;8.70;;;3.00;;
56830;SDS011;42713;42.676;23.352;2024-01-30T13:14:45;8.45;;;3.35;;
56830;SDS011;42713;42.676;23.352;2024-01-30T13:17:11;10.02;;;3.17;;
56830;SDS011;42713;42.676;23.352;2024-01-30T13:19:37;8.77;;;3.42;;
56830;SDS011;42713;42.676;23.352;2024-01-30T13:22:02;8.88;;;3.25;;
56830;SDS011;42713;42.676;23.352;2024-01-30T13:24:28;10.00;;;3.15;;
56830;SDS011;42713;42.676;23.352;2024-01-30T13:26:54;15.10;;;3.15;;
56830;SDS011;42713;42.676;23.352;2024-01-30T13:29:19;8.65;;;3.40;;
56830;SDS011;42713;42.676;23.352;2024-01-30T13:31:45;11.68;;;3.53;;
56830;SDS011;42713;42.676;23.352;2024-01-30T13:34:12;8.18;;;3.33;;
56830;SDS011;42713;42.676;23.352;2024-01-30T13:36:38;8.10;;;3.45;;
56830;SDS011;42713;42.676;23.352;2024-01-30T13:39:04;6.95;;;3.17;;
56830;SDS011;42713;42.676;23.352;2024-01-30T13:41:35;9.43;;;3.08;;
56830;SDS011;42713;42.676;23.352;2024-01-30T13:44:01;7.85;;;3.17;;
56830;SDS011;42713;42.676;23.352;2024-01-30T13:46:28;8.65;;;3.85;;
56830;SDS011;42713;42.676;23.352;2024-01-30T13:48:54;8.57;;;3.38;;
56830;SDS011;42713;42.676;23.352;2024-01-30T13:51:22;8.27;;;3.38;;
56830;SDS011;42713;42.676;23.352;2024-01-30T13:53:48;9.63;;;4.05;;
56830;SDS011;42713;42.676;23.352;2024-01-30T13:56:18;8.43;;;3.65;;
56830;SDS011;42713;42.676;23.352;2024-01-30T13:58:45;8.43;;;3.40;;
56830;SDS011;42713;42.676;23.352;2024-01-30T14:01:10;9.57;;;3.67;;
56830;SDS011;42713;42.676;23.352;2024-01-30T14:03:36;8.15;;;3.53;;
56830;SDS011;42713;42.676;23.352;2024-01-30T14:06:01;17.67;;;3.83;;
56830;SDS011;42713;42.676;23.352;2024-01-30T14:08:27;10.35;;;3.53;;
56830;SDS011;42713;42.676;23.352;2024-01-30T14:10:56;8.35;;;3.17;;
56830;SDS011;42713;42.676;23.352;2024-01-30T14:13:21;8.48;;;3.40;;
56830;SDS011;42713;42.676;23.352;2024-01-30T14:16:06;9.90;;;3.80;;
56830;SDS011;42713;42.676;23.352;2024-01-30T14:18:32;8.38;;;3.30;;
56830;SDS011;42713;42.676;23.352;2024-01-30T14:20:57;10.13;;;3.53;;
56830;SDS011;42713;42.676;23.352;2024-01-30T14:23:23;10.60;;;3.75;;
56830;SDS011;42713;42.676;23.352;2024-01-30T14:25:48;11.23;;;3.75;;
56830;SDS011;42713;42.676;23.352;2024-01-30T14:28:14;12.70;;;3.88;;
56830;SDS011;42713;42.676;23.352;2024-01-30T14:30:39;8.93;;;4.07;;